sensor_id;sensor_type;location;lat;lon;timestamp;P1;durP1;ratioP1;P2;durP2;ratioP2
47367;SDS011;34646;47.964;7.982;2023-12-04T00:03:28;6.20;;;2.40;;
47367;SDS011;34646;47.964;7.982;2023-12-04T00:09:29;5.30;;;2.73;;
47367;SDS011;34646;47.964;7.982;2023-12-04T00:15:30;5.97;;;2.57;;
47367;SDS011;34646;47.964;7.982;2023-12-04T00:21:31;7.23;;;2.97;;
47367;SDS011;34646;47.964;7.982;2023-12-04T00:27:32;7.23;;;2.90;;
47367;SDS011;34646;47.964;7.982;2023-12-04T00:33:32;6.37;;;2.67;;
47367;SDS011;34646;47.964;7.982;2023-12-04T00:39:33;6.40;;;2.57;;
47367;SDS011;34646;47.964;7.982;2023-12-04T00:45:34;7.20;;;2.40;;
47367;SDS011;34646;47.964;7.982;2023-12-04T00:51:38;5.57;;;3.23;;
47367;SDS011;34646;47.964;7.982;2023-12-04T00:57:39;7.15;;;3.08;;
47367;SDS011;34646;47.964;7.982;2023-12-04T01:03:40;5.67;;;2.80;;
47367;SDS011;34646;47.964;7.982;2023-12-04T01:09:41;5.60;;;2.60;;
47367;SDS011;34646;47.964;7.982;2023-12-04T01:15:42;6.47;;;2.87;;
47367;SDS011;34646;47.964;7.982;2023-12-04T01:21:42;4.30;;;2.60;;
47367;SDS011;34646;47.964;7.982;2023-12-04T01:27:43;5.27;;;2.27;;
47367;SDS011;34646;47.964;7.982;2023-12-04T01:33:44;4.53;;;2.40;;
47367;SDS011;34646;47.964;7.982;2023-12-04T01:39:44;6.13;;;2.53;;
47367;SDS011;34646;47.964;7.982;2023-12-04T01:45:45;5.43;;;2.33;;
47367;SDS011;34646;47.964;7.982;2023-12-04T01:51:45;4.80;;;2.90;;
47367;SDS011;34646;47.964;7.982;2023-12-04T01:57:47;4.33;;;2.10;;
47367;SDS011;34646;47.964;7.982;2023-12-04T02:03:48;4.10;;;2.40;;
47367;SDS011;34646;47.964;7.982;2023-12-04T02:09:54;4.43;;;2.17;;
47367;SDS011;34646;47.964;7.982;2023-12-04T02:15:55;4.80;;;2.40;;
47367;SDS011;34646;47.964;7.982;2023-12-04T02:22:00;4.13;;;1.92;;
47367;SDS011;34646;47.964;7.982;2023-12-04T02:28:02;4.93;;;2.10;;
47367;SDS011;34646;47.964;7.982;2023-12-04T02:34:06;4.70;;;2.03;;
47367;SDS011;34646;47.964;7.982;2023-12-04T02:40:07;5.97;;;2.53;;
47367;SDS011;34646;47.964;7.982;2023-12-04T02:46:10;3.80;;;2.28;;
47367;SDS011;34646;47.964;7.982;2023-12-04T02:52:10;3.20;;;2.07;;
47367;SDS011;34646;47.964;7.982;2023-12-04T02:58:11;4.47;;;1.93;;
47367;SDS011;34646;47.964;7.982;2023-12-04T03:04:12;4.13;;;2.00;;
47367;SDS011;34646;47.964;7.982;2023-12-04T03:10:13;4.73;;;2.13;;
47367;SDS011;34646;47.964;7.982;2023-12-04T03:16:15;4.40;;;1.90;;
47367;SDS011;34646;47.964;7.982;2023-12-04T03:22:17;4.10;;;2.08;;
47367;SDS011;34646;47.964;7.982;2023-12-04T03:28:18;4.00;;;2.00;;
47367;SDS011;34646;47.964;7.982;2023-12-04T03:34:18;3.60;;;2.27;;
47367;SDS011;34646;47.964;7.982;2023-12-04T03:40:19;4.13;;;2.07;;
47367;SDS011;34646;47.964;7.982;2023-12-04T03:46:20;3.47;;;1.53;;
47367;SDS011;34646;47.964;7.982;2023-12-04T03:52:20;4.90;;;2.07;;
47367;SDS011;34646;47.964;7.982;2023-12-04T03:58:21;3.03;;;1.70;;
47367;SDS011;34646;47.964;7.982;2023-12-04T04:04:22;2.47;;;1.57;;
47367;SDS011;34646;47.964;7.982;2023-12-04T04:10:23;3.20;;;1.63;;
47367;SDS011;34646;47.964;7.982;2023-12-04T04:16:24;3.27;;;2.00;;
47367;SDS011;34646;47.964;7.982;2023-12-04T04:22:25;3.80;;;1.57;;
47367;SDS011;34646;47.964;7.982;2023-12-04T04:28:25;3.37;;;2.23;;
47367;SDS011;34646;47.964;7.982;2023-12-04T04:34:26;2.90;;;1.57;;
47367;SDS011;34646;47.964;7.982;2023-12-04T04:40:26;4.13;;;1.67;;
47367;SDS011;34646;47.964;7.982;2023-12-04T04:46:27;3.03;;;1.67;;
47367;SDS011;34646;47.964;7.982;2023-12-04T04:52:28;2.93;;;1.50;;
47367;SDS011;34646;47.964;7.982;2023-12-04T04:58:29;2.60;;;1.30;;
47367;SDS011;34646;47.964;7.982;2023-12-04T05:04:30;3.33;;;1.50;;
47367;SDS011;34646;47.964;7.982;2023-12-04T05:10:31;2.60;;;1.20;;
47367;SDS011;34646;47.964;7.982;2023-12-04T05:16:31;2.73;;;1.50;;
47367;SDS011;34646;47.964;7.982;2023-12-04T05:22:33;2.83;;;1.60;;
47367;SDS011;34646;47.964;7.982;2023-12-04T05:28:34;3.35;;;1.63;;
47367;SDS011;34646;47.964;7.982;2023-12-04T05:34:36;2.80;;;1.30;;
47367;SDS011;34646;47.964;7.982;2023-12-04T05:40:36;3.57;;;2.10;;
47367;SDS011;34646;47.964;7.982;2023-12-04T05:46:37;2.73;;;1.77;;
47367;SDS011;34646;47.964;7.982;2023-12-04T05:52:37;4.90;;;1.53;;
47367;SDS011;34646;47.964;7.982;2023-12-04T05:58:38;3.00;;;1.43;;
47367;SDS011;34646;47.964;7.982;2023-12-04T06:04:39;21.40;;;7.60;;
47367;SDS011;34646;47.964;7.982;2023-12-04T06:10:40;31.93;;;11.67;;
47367;SDS011;34646;47.964;7.982;2023-12-04T06:16:41;20.27;;;8.47;;
47367;SDS011;34646;47.964;7.982;2023-12-04T06:22:42;23.83;;;8.97;;
47367;SDS011;34646;47.964;7.982;2023-12-04T06:28:43;21.70;;;8.37;;
47367;SDS011;34646;47.964;7.982;2023-12-04T06:34:45;20.02;;;7.18;;
47367;SDS011;34646;47.964;7.982;2023-12-04T06:40:46;22.10;;;7.73;;
47367;SDS011;34646;47.964;7.982;2023-12-04T06:46:47;20.43;;;7.23;;
47367;SDS011;34646;47.964;7.982;2023-12-04T06:52:50;17.33;;;7.05;;
47367;SDS011;34646;47.964;7.982;2023-12-04T06:58:51;17.87;;;6.63;;
47367;SDS011;34646;47.964;7.982;2023-12-04T07:04:52;15.07;;;6.83;;
47367;SDS011;34646;47.964;7.982;2023-12-04T07:10:52;23.17;;;6.47;;
47367;SDS011;34646;47.964;7.982;2023-12-04T07:16:53;16.87;;;7.00;;
47367;SDS011;34646;47.964;7.982;2023-12-04T07:22:54;14.43;;;6.00;;
47367;SDS011;34646;47.964;7.982;2023-12-04T07:28:58;14.13;;;5.18;;
47367;SDS011;34646;47.964;7.982;2023-12-04T07:34:58;11.23;;;5.30;;
47367;SDS011;34646;47.964;7.982;2023-12-04T07:40:59;15.23;;;5.53;;
47367;SDS011;34646;47.964;7.982;2023-12-04T07:47:00;11.97;;;4.67;;
47367;SDS011;34646;47.964;7.982;2023-12-04T07:53:01;14.53;;;5.33;;
47367;SDS011;34646;47.964;7.982;2023-12-04T07:59:01;10.47;;;4.87;;
47367;SDS011;34646;47.964;7.982;2023-12-04T08:05:02;11.20;;;5.03;;
47367;SDS011;34646;47.964;7.982;2023-12-04T08:11:03;14.43;;;5.00;;
47367;SDS011;34646;47.964;7.982;2023-12-04T08:17:04;10.00;;;4.50;;
47367;SDS011;34646;47.964;7.982;2023-12-04T08:23:05;9.40;;;4.50;;
47367;SDS011;34646;47.964;7.982;2023-12-04T08:29:06;11.37;;;4.27;;
47367;SDS011;34646;47.964;7.982;2023-12-04T08:35:07;12.00;;;4.77;;
47367;SDS011;34646;47.964;7.982;2023-12-04T08:41:08;13.13;;;4.33;;
47367;SDS011;34646;47.964;7.982;2023-12-04T08:47:09;7.90;;;3.47;;
47367;SDS011;34646;47.964;7.982;2023-12-04T08:53:10;10.53;;;3.57;;
47367;SDS011;34646;47.964;7.982;2023-12-04T08:59:11;10.17;;;4.03;;
47367;SDS011;34646;47.964;7.982;2023-12-04T09:05:12;6.35;;;3.40;;
47367;SDS011;34646;47.964;7.982;2023-12-04T09:11:13;9.20;;;3.57;;
47367;SDS011;34646;47.964;7.982;2023-12-04T09:17:14;9.40;;;3.50;;
47367;SDS011;34646;47.964;7.982;2023-12-04T09:29:16;8.73;;;3.75;;
47367;SDS011;34646;47.964;7.982;2023-12-04T09:35:17;7.20;;;3.17;;
47367;SDS011;34646;47.964;7.982;2023-12-04T09:41:19;6.82;;;3.25;;
47367;SDS011;34646;47.964;7.982;2023-12-04T09:47:21;8.60;;;3.03;;
47367;SDS011;34646;47.964;7.982;2023-12-04T09:53:22;6.65;;;3.10;;
47367;SDS011;34646;47.964;7.982;2023-12-04T09:59:24;9.10;;;3.42;;
47367;SDS011;34646;47.964;7.982;2023-12-04T10:05:25;6.78;;;3.30;;
47367;SDS011;34646;47.964;7.982;2023-12-04T10:11:26;8.53;;;2.83;;
47367;SDS011;34646;47.964;7.982;2023-12-04T10:17:28;6.60;;;2.90;;
47367;SDS011;34646;47.964;7.982;2023-12-04T10:23:38;8.77;;;2.90;;
47367;SDS011;34646;47.964;7.982;2023-12-04T10:29:42;5.18;;;2.70;;
47367;SDS011;34646;47.964;7.982;2023-12-04T10:35:45;5.88;;;2.83;;
47367;SDS011;34646;47.964;7.982;2023-12-04T10:41:50;6.32;;;2.75;;
47367;SDS011;34646;47.964;7.982;2023-12-04T10:48:01;4.75;;;2.33;;
47367;SDS011;34646;47.964;7.982;2023-12-04T10:54:04;6.57;;;2.67;;
47367;SDS011;34646;47.964;7.982;2023-12-04T11:00:06;4.80;;;2.33;;
47367;SDS011;34646;47.964;7.982;2023-12-04T11:06:08;7.07;;;2.60;;
47367;SDS011;34646;47.964;7.982;2023-12-04T11:12:13;5.47;;;2.00;;
47367;SDS011;34646;47.964;7.982;2023-12-04T11:18:20;5.28;;;1.98;;
47367;SDS011;34646;47.964;7.982;2023-12-04T11:24:23;5.63;;;2.42;;
47367;SDS011;34646;47.964;7.982;2023-12-04T11:30:24;4.53;;;2.17;;
47367;SDS011;34646;47.964;7.982;2023-12-04T11:36:26;4.00;;;1.60;;
47367;SDS011;34646;47.964;7.982;2023-12-04T11:48:30;8.52;;;2.20;;
47367;SDS011;34646;47.964;7.982;2023-12-04T11:54:56;10.50;;;1.70;;
47367;SDS011;34646;47.964;7.982;2023-12-04T12:01:04;5.60;;;1.73;;
47367;SDS011;34646;47.964;7.982;2023-12-04T12:07:05;5.70;;;1.73;;
47367;SDS011;34646;47.964;7.982;2023-12-04T12:13:06;3.10;;;1.80;;
47367;SDS011;34646;47.964;7.982;2023-12-04T12:19:07;3.93;;;1.87;;
47367;SDS011;34646;47.964;7.982;2023-12-04T12:25:08;4.47;;;1.57;;
47367;SDS011;34646;47.964;7.982;2023-12-04T12:31:09;3.22;;;1.42;;
47367;SDS011;34646;47.964;7.982;2023-12-04T12:37:10;2.87;;;1.37;;
47367;SDS011;34646;47.964;7.982;2023-12-04T12:43:11;3.20;;;1.27;;
47367;SDS011;34646;47.964;7.982;2023-12-04T12:55:22;10.30;;;1.67;;
47367;SDS011;34646;47.964;7.982;2023-12-04T13:01:30;3.45;;;1.52;;
47367;SDS011;34646;47.964;7.982;2023-12-04T13:07:31;4.68;;;1.45;;
47367;SDS011;34646;47.964;7.982;2023-12-04T13:13:32;12.50;;;1.43;;
47367;SDS011;34646;47.964;7.982;2023-12-04T13:19:33;2.87;;;1.17;;
47367;SDS011;34646;47.964;7.982;2023-12-04T13:25:35;3.42;;;1.27;;
47367;SDS011;34646;47.964;7.982;2023-12-04T13:31:36;4.07;;;1.27;;
47367;SDS011;34646;47.964;7.982;2023-12-04T13:37:37;3.45;;;1.63;;
47367;SDS011;34646;47.964;7.982;2023-12-04T13:43:41;6.00;;;1.20;;
47367;SDS011;34646;47.964;7.982;2023-12-04T13:49:51;7.38;;;2.13;;
47367;SDS011;34646;47.964;7.982;2023-12-04T13:55:52;4.00;;;1.27;;
47367;SDS011;34646;47.964;7.982;2023-12-04T14:01:53;3.03;;;1.40;;
47367;SDS011;34646;47.964;7.982;2023-12-04T14:08:00;3.80;;;1.30;;
47367;SDS011;34646;47.964;7.982;2023-12-04T14:14:01;3.40;;;1.20;;
47367;SDS011;34646;47.964;7.982;2023-12-04T14:20:03;4.53;;;1.65;;
47367;SDS011;34646;47.964;7.982;2023-12-04T14:26:11;2.95;;;1.20;;
47367;SDS011;34646;47.964;7.982;2023-12-04T14:32:12;4.20;;;1.20;;
47367;SDS011;34646;47.964;7.982;2023-12-04T14:38:13;2.27;;;1.20;;
47367;SDS011;34646;47.964;7.982;2023-12-04T14:44:14;3.63;;;1.33;;
47367;SDS011;34646;47.964;7.982;2023-12-04T14:50:15;6.40;;;1.67;;
47367;SDS011;34646;47.964;7.982;2023-12-04T14:56:17;4.13;;;1.45;;
47367;SDS011;34646;47.964;7.982;2023-12-04T15:02:24;4.20;;;2.08;;
47367;SDS011;34646;47.964;7.982;2023-12-04T15:08:43;10.50;;;2.05;;
47367;SDS011;34646;47.964;7.982;2023-12-04T15:15:03;4.43;;;1.80;;
47367;SDS011;34646;47.964;7.982;2023-12-04T15:21:24;5.83;;;1.93;;
47367;SDS011;34646;47.964;7.982;2023-12-04T15:27:25;4.47;;;1.83;;
47367;SDS011;34646;47.964;7.982;2023-12-04T15:33:26;5.40;;;2.07;;
47367;SDS011;34646;47.964;7.982;2023-12-04T15:39:27;6.45;;;2.22;;
47367;SDS011;34646;47.964;7.982;2023-12-04T15:45:29;6.53;;;1.97;;
47367;SDS011;34646;47.964;7.982;2023-12-04T15:51:30;7.67;;;2.47;;
47367;SDS011;34646;47.964;7.982;2023-12-04T15:57:30;9.53;;;2.83;;
47367;SDS011;34646;47.964;7.982;2023-12-04T16:03:31;12.03;;;2.30;;
47367;SDS011;34646;47.964;7.982;2023-12-04T16:09:32;9.27;;;2.87;;
47367;SDS011;34646;47.964;7.982;2023-12-04T16:15:33;6.43;;;3.00;;
47367;SDS011;34646;47.964;7.982;2023-12-04T16:21:34;7.17;;;3.40;;
47367;SDS011;34646;47.964;7.982;2023-12-04T16:27:35;12.03;;;3.37;;
47367;SDS011;34646;47.964;7.982;2023-12-04T16:33:38;8.32;;;3.47;;
47367;SDS011;34646;47.964;7.982;2023-12-04T16:39:40;8.47;;;3.73;;
47367;SDS011;34646;47.964;7.982;2023-12-04T16:51:42;8.32;;;3.97;;
47367;SDS011;34646;47.964;7.982;2023-12-04T16:57:43;8.73;;;3.97;;
47367;SDS011;34646;47.964;7.982;2023-12-04T17:03:44;11.55;;;4.57;;
47367;SDS011;34646;47.964;7.982;2023-12-04T17:09:45;11.17;;;5.33;;
47367;SDS011;34646;47.964;7.982;2023-12-04T17:15:47;12.30;;;5.63;;
47367;SDS011;34646;47.964;7.982;2023-12-04T17:21:47;14.03;;;5.17;;
47367;SDS011;34646;47.964;7.982;2023-12-04T17:27:48;13.10;;;5.63;;
47367;SDS011;34646;47.964;7.982;2023-12-04T17:33:49;12.83;;;5.90;;
47367;SDS011;34646;47.964;7.982;2023-12-04T17:39:50;13.23;;;5.67;;
47367;SDS011;34646;47.964;7.982;2023-12-04T17:45:51;10.67;;;5.27;;
47367;SDS011;34646;47.964;7.982;2023-12-04T17:51:52;12.17;;;5.80;;
47367;SDS011;34646;47.964;7.982;2023-12-04T17:57:53;10.70;;;5.80;;
47367;SDS011;34646;47.964;7.982;2023-12-04T18:03:53;13.00;;;5.67;;
47367;SDS011;34646;47.964;7.982;2023-12-04T18:09:56;11.50;;;5.68;;
47367;SDS011;34646;47.964;7.982;2023-12-04T18:15:56;15.80;;;6.53;;
47367;SDS011;34646;47.964;7.982;2023-12-04T18:21:57;14.83;;;6.30;;
47367;SDS011;34646;47.964;7.982;2023-12-04T18:27:58;18.07;;;7.93;;
47367;SDS011;34646;47.964;7.982;2023-12-04T18:33:59;27.13;;;8.77;;
47367;SDS011;34646;47.964;7.982;2023-12-04T18:40:00;20.20;;;8.30;;
47367;SDS011;34646;47.964;7.982;2023-12-04T18:46:04;23.80;;;8.95;;
47367;SDS011;34646;47.964;7.982;2023-12-04T18:52:05;29.47;;;8.87;;
47367;SDS011;34646;47.964;7.982;2023-12-04T18:58:07;20.52;;;8.20;;
47367;SDS011;34646;47.964;7.982;2023-12-04T19:04:13;25.48;;;8.23;;
47367;SDS011;34646;47.964;7.982;2023-12-04T19:10:14;19.87;;;8.80;;
47367;SDS011;34646;47.964;7.982;2023-12-04T19:16:15;24.90;;;9.17;;
47367;SDS011;34646;47.964;7.982;2023-12-04T19:22:17;16.88;;;7.60;;
47367;SDS011;34646;47.964;7.982;2023-12-04T19:28:19;15.02;;;6.95;;
47367;SDS011;34646;47.964;7.982;2023-12-04T19:34:19;18.63;;;7.87;;
47367;SDS011;34646;47.964;7.982;2023-12-04T19:40:20;18.00;;;7.67;;
47367;SDS011;34646;47.964;7.982;2023-12-04T19:46:22;18.50;;;7.30;;
47367;SDS011;34646;47.964;7.982;2023-12-04T19:52:22;12.37;;;6.57;;
47367;SDS011;34646;47.964;7.982;2023-12-04T19:58:23;16.53;;;6.67;;
47367;SDS011;34646;47.964;7.982;2023-12-04T20:04:24;17.93;;;7.60;;
47367;SDS011;34646;47.964;7.982;2023-12-04T20:10:28;21.08;;;7.47;;
47367;SDS011;34646;47.964;7.982;2023-12-04T20:16:29;18.77;;;7.73;;
47367;SDS011;34646;47.964;7.982;2023-12-04T20:22:30;24.20;;;8.07;;
47367;SDS011;34646;47.964;7.982;2023-12-04T20:28:30;18.50;;;8.47;;
47367;SDS011;34646;47.964;7.982;2023-12-04T20:34:31;20.67;;;8.03;;
47367;SDS011;34646;47.964;7.982;2023-12-04T20:40:32;8.97;;;4.33;;
47367;SDS011;34646;47.964;7.982;2023-12-04T20:46:33;3.03;;;1.27;;
47367;SDS011;34646;47.964;7.982;2023-12-04T20:52:34;4.47;;;1.97;;
47367;SDS011;34646;47.964;7.982;2023-12-04T20:58:35;5.47;;;2.80;;
47367;SDS011;34646;47.964;7.982;2023-12-04T21:04:36;5.85;;;2.83;;
47367;SDS011;34646;47.964;7.982;2023-12-04T21:10:37;7.43;;;3.07;;
47367;SDS011;34646;47.964;7.982;2023-12-04T21:16:40;7.63;;;2.80;;
47367;SDS011;34646;47.964;7.982;2023-12-04T21:22:41;7.80;;;3.17;;
47367;SDS011;34646;47.964;7.982;2023-12-04T21:28:42;6.90;;;3.03;;
47367;SDS011;34646;47.964;7.982;2023-12-04T21:34:43;6.77;;;3.23;;
47367;SDS011;34646;47.964;7.982;2023-12-04T21:40:43;5.10;;;2.57;;
47367;SDS011;34646;47.964;7.982;2023-12-04T21:46:44;9.07;;;3.50;;
47367;SDS011;34646;47.964;7.982;2023-12-04T21:52:45;8.83;;;3.27;;
47367;SDS011;34646;47.964;7.982;2023-12-04T21:58:46;7.20;;;3.37;;
47367;SDS011;34646;47.964;7.982;2023-12-04T22:04:47;6.53;;;3.17;;
47367;SDS011;34646;47.964;7.982;2023-12-04T22:10:48;7.50;;;2.97;;
47367;SDS011;34646;47.964;7.982;2023-12-04T22:16:49;8.37;;;3.57;;
47367;SDS011;34646;47.964;7.982;2023-12-04T22:22:50;8.93;;;3.63;;
47367;SDS011;34646;47.964;7.982;2023-12-04T22:28:51;6.27;;;3.53;;
47367;SDS011;34646;47.964;7.982;2023-12-04T22:34:52;6.40;;;3.33;;
47367;SDS011;34646;47.964;7.982;2023-12-04T22:40:54;7.93;;;3.55;;
47367;SDS011;34646;47.964;7.982;2023-12-04T22:46:55;7.20;;;2.80;;
47367;SDS011;34646;47.964;7.982;2023-12-04T22:52:56;9.20;;;3.43;;
47367;SDS011;34646;47.964;7.982;2023-12-04T22:58:57;6.30;;;3.33;;
47367;SDS011;34646;47.964;7.982;2023-12-04T23:04:58;6.20;;;3.37;;
47367;SDS011;34646;47.964;7.982;2023-12-04T23:10:59;6.93;;;3.10;;
47367;SDS011;34646;47.964;7.982;2023-12-04T23:16:59;9.20;;;3.73;;
47367;SDS011;34646;47.964;7.982;2023-12-04T23:23:00;7.60;;;3.03;;
47367;SDS011;34646;47.964;7.982;2023-12-04T23:29:01;8.00;;;3.23;;
47367;SDS011;34646;47.964;7.982;2023-12-04T23:35:04;8.05;;;3.40;;
47367;SDS011;34646;47.964;7.982;2023-12-04T23:41:05;9.70;;;3.03;;
47367;SDS011;34646;47.964;7.982;2023-12-04T23:47:06;6.87;;;3.13;;
47367;SDS011;34646;47.964;7.982;2023-12-04T23:53:07;6.10;;;2.53;;
47367;SDS011;34646;47.964;7.982;2023-12-04T23:59:08;8.27;;;3.30;;
